createdAt,value
2023-01-30T00:01:19.908Z,77.22
2023-01-30T00:03:50.282Z,77.37
2023-01-30T00:06:20.988Z,77.34
2023-01-30T00:08:51.553Z,77.36
2023-01-30T00:11:22.780Z,77.31
2023-01-30T00:13:53.611Z,77.30
2023-01-30T00:16:24.036Z,77.23
2023-01-30T00:18:54.506Z,77.36
2023-01-30T00:21:24.936Z,77.35
2023-01-30T00:23:55.233Z,77.36
2023-01-30T00:26:25.605Z,77.45
2023-01-30T00:28:55.969Z,77.47
2023-01-30T00:31:26.513Z,77.63
2023-01-30T00:33:56.908Z,77.84
2023-01-30T00:36:27.279Z,78.13
2023-01-30T00:38:59.321Z,78.40
2023-01-30T00:41:49.615Z,78.54
2023-01-30T00:44:37.301Z,78.71
2023-01-30T00:47:08.976Z,78.84
2023-01-30T00:49:39.679Z,78.87
2023-01-30T00:52:10.064Z,78.92
2023-01-30T00:54:40.430Z,78.82
2023-01-30T00:57:10.755Z,78.94
2023-01-30T00:59:41.084Z,79.03
2023-01-30T01:02:11.510Z,78.94
2023-01-30T01:04:44.156Z,79.15
2023-01-30T01:07:17.871Z,79.31
2023-01-30T01:09:48.259Z,79.52
2023-01-30T01:12:18.712Z,79.56
2023-01-30T01:14:49.242Z,79.52
2023-01-30T01:17:19.848Z,79.66
2023-01-30T01:19:50.270Z,79.84
2023-01-30T01:22:20.592Z,80.08
2023-01-30T01:24:51.007Z,80.21
2023-01-30T01:27:21.394Z,80.29
2023-01-30T01:29:52.716Z,80.34
2023-01-30T01:32:24.135Z,80.45
2023-01-30T01:34:54.673Z,80.51
2023-01-30T01:37:25.252Z,80.60
2023-01-30T01:40:13.383Z,80.66
2023-01-30T01:42:44.001Z,80.71
2023-01-30T01:45:20.671Z,80.74
2023-01-30T01:48:00.169Z,80.73
2023-01-30T01:50:33.934Z,80.75
2023-01-30T01:53:04.449Z,80.81
2023-01-30T01:55:35.063Z,80.85
2023-01-30T01:58:08.269Z,80.89
2023-01-30T02:00:38.732Z,81.03
2023-01-30T02:03:13.690Z,81.08
2023-01-30T02:05:47.521Z,81.03
2023-01-30T02:08:20.326Z,81.09
2023-01-30T02:10:58.160Z,81.02
2023-01-30T02:13:28.975Z,81.09
2023-01-30T02:16:00.083Z,81.21
2023-01-30T02:18:31.662Z,81.37
2023-01-30T02:21:50.801Z,81.42
2023-01-30T02:24:38.014Z,81.56
2023-01-30T02:27:28.516Z,81.46
2023-01-30T02:30:26.796Z,81.50
2023-01-30T02:33:05.461Z,81.43
2023-01-30T02:35:43.611Z,81.50
2023-01-30T02:38:31.662Z,81.55
2023-01-30T02:41:08.631Z,81.45
2023-01-30T02:43:47.177Z,81.51
2023-01-30T02:46:21.301Z,81.60
2023-01-30T02:48:57.783Z,81.63
2023-01-30T02:51:32.698Z,81.78
2023-01-30T02:54:04.963Z,81.70
2023-01-30T02:56:47.679Z,81.70
2023-01-30T02:59:23.646Z,81.89
2023-01-30T03:02:25.737Z,81.98
2023-01-30T03:05:09.698Z,81.93
2023-01-30T03:07:48.689Z,81.91
2023-01-30T03:10:26.674Z,81.87
2023-01-30T03:13:07.829Z,81.93
2023-01-30T03:15:44.746Z,81.95
2023-01-30T03:18:17.063Z,82.05
2023-01-30T03:20:50.988Z,81.96
2023-01-30T03:23:23.239Z,81.96
2023-01-30T03:25:55.734Z,82.04
2023-01-30T03:28:27.082Z,82.15
2023-01-30T03:37:26.388Z,82.19
2023-01-30T03:39:57.585Z,82.21
2023-01-30T03:42:29.127Z,82.27
2023-01-30T03:44:59.565Z,82.29
2023-01-30T03:47:29.916Z,82.36
2023-01-30T03:50:00.317Z,82.43
2023-01-30T03:52:30.924Z,82.34
2023-01-30T03:55:01.398Z,82.31
2023-01-30T03:57:32.443Z,82.29
2023-01-30T04:00:04.134Z,82.31
2023-01-30T04:02:35.624Z,82.20
2023-01-30T04:05:08.045Z,82.21
2023-01-30T04:07:38.772Z,82.16
2023-01-30T04:10:11.341Z,82.22
2023-01-30T04:12:40.817Z,82.19
2023-01-30T04:15:12.604Z,82.20
2023-01-30T04:17:51.496Z,82.19
2023-01-30T04:20:38.618Z,82.28
2023-01-30T04:23:09.036Z,82.44
2023-01-30T04:25:39.346Z,82.48
2023-01-30T04:28:11.017Z,82.43
2023-01-30T04:30:41.909Z,82.37
2023-01-30T04:33:30.867Z,82.35
2023-01-30T04:36:02.398Z,82.39
2023-01-30T04:38:33.561Z,82.41
2023-01-30T04:41:04.140Z,82.36
2023-01-30T04:43:36.035Z,82.44
2023-01-30T04:46:26.381Z,82.50
2023-01-30T04:48:56.789Z,82.58
2023-01-30T04:51:27.174Z,82.58
2023-01-30T04:53:57.521Z,82.64
2023-01-30T04:56:28.028Z,82.65
2023-01-30T04:58:58.417Z,82.68
2023-01-30T05:01:34.885Z,82.57
2023-01-30T05:04:05.761Z,82.60
2023-01-30T05:06:36.757Z,82.54
2023-01-30T05:09:07.242Z,82.49
2023-01-30T05:11:38.255Z,82.59
2023-01-30T05:14:08.570Z,82.61
2023-01-30T05:16:38.862Z,82.64
2023-01-30T05:19:10.035Z,82.64
2023-01-30T05:21:40.516Z,82.57
2023-01-30T05:24:11.127Z,82.56
2023-01-30T05:26:41.557Z,82.58
2023-01-30T05:29:12.981Z,82.59
2023-01-30T05:31:43.393Z,82.70
2023-01-30T05:34:15.013Z,82.82
2023-01-30T05:36:45.777Z,82.85
2023-01-30T05:39:16.345Z,82.96
2023-01-30T05:41:47.408Z,83.10
2023-01-30T05:44:18.057Z,83.10
2023-01-30T05:46:48.580Z,83.22
2023-01-30T05:49:19.432Z,83.49
2023-01-30T05:51:51.514Z,83.68
2023-01-30T05:54:22.014Z,83.75
2023-01-30T05:56:52.912Z,83.90
2023-01-30T05:59:23.463Z,83.91
2023-01-30T06:01:53.807Z,83.93
2023-01-30T06:04:24.265Z,84.03
2023-01-30T06:06:54.558Z,84.23
2023-01-30T06:09:24.789Z,84.29
2023-01-30T06:11:55.632Z,84.42
2023-01-30T06:14:25.933Z,84.56
2023-01-30T06:16:56.556Z,84.58
2023-01-30T06:19:26.902Z,84.71
2023-01-30T06:21:57.239Z,84.87
2023-01-30T06:24:27.582Z,85.11
2023-01-30T06:26:57.840Z,85.27
2023-01-30T06:29:28.196Z,85.37
2023-01-30T06:32:00.777Z,85.48
2023-01-30T06:34:31.126Z,85.51
2023-01-30T06:37:01.422Z,85.66
2023-01-30T06:39:31.886Z,85.63
2023-01-30T06:42:02.619Z,85.77
2023-01-30T06:44:32.882Z,85.85
2023-01-30T06:47:03.234Z,85.80
2023-01-30T06:49:33.549Z,85.90
2023-01-30T06:52:03.883Z,85.90
2023-01-30T06:54:34.181Z,85.85
2023-01-30T06:57:04.660Z,85.95
2023-01-30T06:59:34.961Z,85.80
2023-01-30T07:02:05.397Z,85.72
2023-01-30T07:04:35.904Z,85.76
2023-01-30T07:07:07.157Z,85.74
2023-01-30T07:09:37.521Z,85.68
2023-01-30T07:12:08.507Z,85.79
2023-01-30T07:14:38.784Z,85.76
2023-01-30T07:17:09.094Z,85.67
2023-01-30T07:19:39.823Z,85.66
2023-01-30T07:22:10.110Z,85.55
2023-01-30T07:24:42.819Z,85.60
2023-01-30T07:27:14.089Z,85.52
2023-01-30T07:29:44.369Z,85.62
2023-01-30T07:32:18.390Z,85.55
2023-01-30T07:34:49.139Z,85.69
2023-01-30T07:37:19.467Z,85.62
2023-01-30T07:39:49.823Z,85.64
2023-01-30T07:42:20.146Z,85.74
2023-01-30T07:44:50.504Z,85.74
2023-01-30T07:47:20.987Z,85.87
2023-01-30T07:49:51.367Z,85.85
2023-01-30T07:52:21.641Z,85.96
2023-01-30T07:54:51.926Z,86.01
2023-01-30T07:57:22.499Z,86.07
2023-01-30T07:59:52.886Z,86.08
2023-01-30T08:02:23.210Z,86.11
2023-01-30T08:04:53.584Z,86.06
2023-01-30T08:07:23.954Z,86.06
2023-01-30T08:09:54.503Z,86.06
2023-01-30T08:12:24.988Z,86.15
2023-01-30T08:14:55.407Z,86.04
2023-01-30T08:17:25.796Z,86.14
2023-01-30T08:19:56.190Z,86.24
2023-01-30T08:22:26.646Z,86.28
2023-01-30T08:24:57.019Z,86.32
2023-01-30T08:27:27.440Z,86.25
2023-01-30T08:29:58.015Z,86.33
2023-01-30T08:32:28.483Z,86.28
2023-01-30T08:34:58.807Z,86.51
2023-01-30T08:37:29.226Z,86.57
2023-01-30T08:39:59.603Z,86.41
2023-01-30T08:42:30.491Z,86.47
2023-01-30T08:45:00.796Z,86.38
2023-01-30T08:47:31.399Z,86.31
2023-01-30T08:50:01.813Z,86.44
2023-01-30T08:52:32.436Z,86.36
2023-01-30T08:55:02.789Z,86.42
2023-01-30T08:57:33.502Z,86.26
2023-01-30T09:00:04.901Z,86.48
2023-01-30T09:02:35.458Z,86.58
2023-01-30T09:05:06.394Z,86.66
2023-01-30T09:07:36.823Z,86.57
2023-01-30T09:10:08.551Z,86.62
2023-01-30T09:12:39.046Z,86.75
2023-01-30T09:15:11.280Z,86.78
2023-01-30T09:17:41.644Z,86.72
2023-01-30T09:20:13.621Z,86.59
2023-01-30T09:22:43.918Z,86.63
2023-01-30T09:25:14.328Z,86.73
2023-01-30T09:27:45.027Z,86.78
2023-01-30T09:30:16.564Z,86.80
2023-01-30T09:32:47.403Z,86.77
2023-01-30T09:35:17.894Z,86.78
2023-01-30T09:37:52.275Z,86.77
2023-01-30T09:40:28.390Z,86.58
2023-01-30T09:43:08.111Z,86.54
2023-01-30T09:45:45.890Z,86.48
2023-01-30T09:48:21.046Z,86.46
2023-01-30T09:51:07.502Z,86.35
2023-01-30T09:53:53.712Z,86.29
2023-01-30T09:56:24.064Z,86.24
2023-01-30T09:58:57.293Z,86.20
2023-01-30T10:01:30.390Z,86.23
2023-01-30T10:04:14.742Z,86.18
2023-01-30T10:06:53.303Z,86.16
2023-01-30T10:09:32.359Z,86.03
2023-01-30T10:12:12.803Z,86.01
2023-01-30T10:15:02.917Z,85.81
2023-01-30T10:17:47.072Z,85.50
2023-01-30T10:20:31.590Z,85.21
2023-01-30T10:23:16.629Z,84.34
2023-01-30T10:25:50.578Z,84.11
2023-01-30T10:28:26.078Z,83.80
2023-01-30T10:31:03.557Z,83.80
2023-01-30T10:33:38.338Z,82.99
2023-01-30T10:36:15.283Z,82.39
2023-01-30T10:38:51.759Z,82.14
2023-01-30T10:41:28.810Z,81.58
2023-01-30T10:44:06.293Z,81.52
2023-01-30T10:46:55.786Z,81.07
2023-01-30T10:49:38.264Z,80.06
2023-01-30T10:52:32.287Z,80.24
2023-01-30T10:55:12.712Z,80.56
2023-01-30T10:57:51.627Z,80.37
2023-01-30T11:00:29.921Z,79.39
2023-01-30T11:03:13.318Z,78.48
2023-01-30T11:05:49.408Z,78.23
2023-01-30T11:08:27.467Z,77.73
2023-01-30T11:11:01.376Z,74.53
2023-01-30T11:13:35.771Z,71.07
2023-01-30T11:16:10.362Z,69.26
2023-01-30T11:19:18.972Z,67.40
2023-01-30T11:21:45.417Z,64.64
2023-01-30T11:24:21.053Z,62.60
2023-01-30T11:26:54.505Z,62.43
2023-01-30T11:29:32.025Z,61.28
2023-01-30T11:37:57.715Z,61.09
2023-01-30T11:40:31.750Z,62.74
2023-01-30T11:43:07.237Z,62.87
2023-01-30T11:45:39.665Z,62.36
2023-01-30T11:48:31.559Z,60.69
2023-01-30T11:51:06.826Z,59.25
2023-01-30T11:53:38.153Z,58.30
2023-01-30T11:56:15.719Z,60.52
2023-01-30T11:58:48.585Z,60.86
2023-01-30T12:01:17.399Z,61.46
2023-01-30T12:03:50.969Z,62.39
2023-01-30T12:06:26.460Z,63.17
2023-01-30T12:08:57.474Z,63.43
2023-01-30T12:11:30.649Z,63.94
2023-01-30T12:14:09.753Z,64.53
2023-01-30T12:16:51.131Z,65.32
2023-01-30T12:19:31.639Z,65.91
2023-01-30T12:22:05.837Z,65.93
2023-01-30T12:24:41.455Z,65.18
2023-01-30T12:27:16.651Z,62.39
2023-01-30T12:29:55.922Z,61.12
2023-01-30T12:32:29.660Z,60.39
2023-01-30T12:35:01.488Z,58.67
2023-01-30T12:37:46.414Z,59.59
2023-01-30T12:40:26.209Z,58.94
2023-01-30T12:43:07.739Z,60.11
2023-01-30T12:45:42.182Z,60.49
2023-01-30T12:48:28.685Z,60.74
2023-01-30T12:51:06.314Z,60.76
2023-01-30T12:53:45.392Z,61.17
2023-01-30T12:56:33.078Z,61.12
2023-01-30T12:59:09.192Z,60.95
2023-01-30T13:01:48.577Z,61.72
2023-01-30T13:04:26.051Z,62.10
2023-01-30T13:07:03.099Z,62.78
2023-01-30T13:09:47.134Z,62.79
2023-01-30T13:12:24.233Z,63.27
2023-01-30T13:15:01.388Z,63.11
2023-01-30T13:17:45.688Z,63.81
2023-01-30T13:20:31.241Z,64.26
2023-01-30T13:23:06.059Z,64.87
2023-01-30T13:25:42.339Z,65.49
2023-01-30T13:28:16.014Z,66.00
2023-01-30T13:30:49.153Z,66.39
2023-01-30T13:33:21.042Z,66.53
2023-01-30T13:35:54.812Z,66.88
2023-01-30T13:38:27.904Z,67.18
2023-01-30T13:41:02.795Z,67.58
2023-01-30T13:43:37.141Z,68.02
2023-01-30T13:46:11.237Z,68.50
2023-01-30T13:48:55.428Z,68.76
2023-01-30T13:51:33.271Z,68.64
2023-01-30T13:54:07.608Z,68.74
2023-01-30T13:56:43.164Z,68.97
2023-01-30T13:59:21.937Z,68.82
2023-01-30T14:02:19.742Z,68.50
2023-01-30T14:04:52.238Z,68.73
2023-01-30T14:07:26.906Z,68.73
2023-01-30T14:10:12.290Z,68.36
2023-01-30T14:12:45.252Z,68.22
2023-01-30T14:15:26.167Z,68.32
2023-01-30T14:18:07.415Z,68.27
2023-01-30T14:20:40.589Z,68.00
2023-01-30T14:23:20.494Z,68.23
2023-01-30T14:25:53.073Z,67.79
2023-01-30T14:28:52.698Z,67.89
2023-01-30T14:31:50.147Z,67.60
2023-01-30T14:34:41.789Z,67.35
2023-01-30T14:37:45.923Z,67.67
2023-01-30T14:40:37.356Z,67.90
2023-01-30T14:43:36.920Z,67.43
2023-01-30T14:46:09.080Z,66.70
2023-01-30T14:48:44.809Z,65.36
2023-01-30T14:51:23.430Z,65.53
2023-01-30T14:53:56.883Z,65.63
2023-01-30T14:56:41.453Z,65.39
2023-01-30T14:59:20.320Z,65.12
2023-01-30T15:02:03.529Z,64.56
2023-01-30T15:04:33.116Z,64.53
2023-01-30T15:07:10.358Z,64.20
2023-01-30T15:09:41.897Z,63.78
2023-01-30T15:12:29.647Z,64.13
2023-01-30T15:15:07.045Z,64.41
2023-01-30T15:17:48.508Z,64.26
2023-01-30T15:20:29.726Z,64.28
2023-01-30T15:23:15.138Z,63.53
2023-01-30T15:26:01.924Z,63.87
2023-01-30T15:28:37.831Z,63.25
2023-01-30T15:31:12.156Z,63.01
2023-01-30T15:33:50.723Z,62.83
2023-01-30T15:36:24.267Z,63.22
2023-01-30T15:39:01.683Z,63.15
2023-01-30T15:41:35.360Z,63.13
2023-01-30T15:44:33.225Z,63.36
2023-01-30T15:47:14.587Z,63.36
2023-01-30T15:49:54.305Z,63.60
2023-01-30T15:52:29.109Z,63.97
2023-01-30T15:55:02.170Z,64.02
2023-01-30T15:57:35.886Z,64.45
2023-01-30T16:00:08.885Z,64.81
2023-01-30T16:02:45.499Z,65.13
2023-01-30T16:05:21.195Z,65.39
2023-01-30T16:07:52.849Z,65.62
2023-01-30T16:10:24.672Z,65.89
2023-01-30T16:12:57.359Z,66.14
2023-01-30T16:15:32.119Z,66.44
2023-01-30T16:18:06.161Z,66.68
2023-01-30T16:20:58.912Z,66.73
2023-01-30T16:23:34.827Z,66.96
2023-01-30T16:26:06.674Z,67.02
2023-01-30T16:28:37.284Z,67.18
2023-01-30T16:31:09.459Z,67.15
2023-01-30T16:33:40.392Z,67.27
2023-01-30T16:36:32.982Z,67.33
2023-01-30T16:39:03.391Z,67.58
2023-01-30T16:41:35.586Z,67.62
2023-01-30T16:44:17.829Z,67.91
2023-01-30T16:46:53.199Z,67.89
2023-01-30T16:49:25.907Z,68.06
2023-01-30T16:52:05.488Z,68.04
2023-01-30T16:54:36.175Z,67.89
2023-01-30T16:57:06.865Z,67.80
2023-01-30T16:59:37.875Z,67.87
2023-01-30T17:02:15.501Z,68.10
2023-01-30T17:04:45.790Z,68.02
2023-01-30T17:07:35.250Z,68.15
2023-01-30T17:10:06.329Z,67.92
2023-01-30T17:12:49.353Z,68.07
2023-01-30T17:15:36.641Z,67.99
2023-01-30T17:18:07.776Z,67.92
2023-01-30T17:20:47.425Z,68.08
2023-01-30T17:23:20.163Z,67.94
2023-01-30T17:25:51.187Z,68.09
2023-01-30T17:28:24.193Z,68.06
2023-01-30T17:30:54.869Z,68.07
2023-01-30T17:33:25.840Z,68.22
2023-01-30T17:35:56.322Z,68.38
2023-01-30T17:38:26.682Z,68.59
2023-01-30T17:40:57.436Z,69.00
2023-01-30T17:43:27.880Z,68.92
2023-01-30T17:45:58.412Z,69.07
2023-01-30T17:48:29.118Z,69.20
2023-01-30T17:50:59.476Z,69.49
2023-01-30T17:53:29.782Z,69.76
2023-01-30T17:56:00.175Z,69.73
2023-01-30T17:58:30.631Z,69.90
2023-01-30T18:01:01.030Z,70.10
2023-01-30T18:03:31.423Z,70.37
2023-01-30T18:06:02.157Z,70.60
2023-01-30T18:08:32.606Z,70.87
2023-01-30T18:11:11.417Z,70.94
2023-01-30T18:13:43.465Z,70.91
2023-01-30T18:16:18.515Z,70.92
2023-01-30T18:18:49.882Z,71.02
2023-01-30T18:21:22.069Z,71.08
2023-01-30T18:23:52.788Z,71.17
2023-01-30T18:26:23.420Z,71.19
2023-01-30T18:28:54.261Z,71.33
2023-01-30T18:31:26.788Z,71.19
2023-01-30T18:33:57.362Z,71.23
2023-01-30T18:36:27.818Z,71.24
2023-01-30T18:38:58.187Z,71.22
2023-01-30T18:41:29.287Z,71.16
2023-01-30T18:44:00.798Z,71.21
2023-01-30T18:46:32.480Z,71.15
2023-01-30T18:49:03.150Z,71.02
2023-01-30T18:51:34.337Z,71.00
2023-01-30T18:54:04.845Z,71.05
2023-01-30T18:56:36.343Z,71.26
2023-01-30T18:59:07.985Z,71.20
2023-01-30T19:01:39.962Z,71.29
2023-01-30T19:04:11.975Z,71.53
2023-01-30T19:06:43.685Z,71.93
2023-01-30T19:09:17.258Z,72.51
2023-01-30T19:12:01.880Z,73.00
2023-01-30T19:14:32.338Z,73.38
2023-01-30T19:17:04.275Z,73.54
2023-01-30T19:19:37.120Z,73.57
2023-01-30T19:22:08.487Z,73.77
2023-01-30T19:24:39.272Z,74.09
2023-01-30T19:27:14.086Z,74.39
2023-01-30T19:29:44.678Z,74.81
2023-01-30T19:32:15.356Z,75.09
2023-01-30T19:34:46.577Z,75.21
2023-01-30T19:37:17.154Z,75.50
2023-01-30T19:39:47.992Z,75.78
2023-01-30T19:42:18.651Z,75.98
2023-01-30T19:44:49.209Z,76.23
2023-01-30T19:47:22.031Z,76.60
2023-01-30T19:49:54.141Z,76.64
2023-01-30T19:52:24.766Z,76.81
2023-01-30T19:54:55.194Z,76.74
2023-01-30T19:57:25.668Z,76.76
2023-01-30T19:59:56.091Z,76.58
2023-01-30T20:02:26.508Z,76.55
2023-01-30T20:04:58.355Z,76.56
2023-01-30T20:07:29.808Z,76.53
2023-01-30T20:10:00.536Z,76.45
2023-01-30T20:12:31.970Z,76.52
2023-01-30T20:15:02.935Z,76.42
2023-01-30T20:17:35.077Z,76.46
2023-01-30T20:20:07.780Z,76.40
2023-01-30T20:22:38.316Z,76.38
2023-01-30T20:25:11.105Z,76.57
2023-01-30T20:27:41.540Z,76.63
2023-01-30T20:30:15.385Z,76.72
2023-01-30T20:32:46.863Z,76.81
2023-01-30T20:35:17.775Z,76.93
2023-01-30T20:37:48.310Z,77.05
2023-01-30T20:40:19.569Z,76.91
2023-01-30T20:42:51.286Z,76.80
2023-01-30T20:45:22.158Z,76.71
2023-01-30T20:47:52.879Z,76.62
2023-01-30T20:50:23.401Z,76.48
2023-01-30T20:52:54.058Z,76.36
2023-01-30T20:55:24.511Z,76.18
2023-01-30T20:57:55.022Z,76.16
2023-01-30T21:00:25.566Z,76.10
2023-01-30T21:02:56.220Z,76.18
2023-01-30T21:05:26.671Z,76.20
2023-01-30T21:07:57.059Z,76.31
2023-01-30T21:10:27.492Z,76.19
2023-01-30T21:12:57.949Z,76.27
2023-01-30T21:15:28.666Z,76.24
2023-01-30T21:17:59.146Z,76.37
2023-01-30T21:20:29.539Z,76.45
2023-01-30T21:23:00.142Z,76.48
2023-01-30T21:25:30.670Z,76.51
2023-01-30T21:28:01.219Z,76.49
2023-01-30T21:30:32.078Z,76.51
2023-01-30T21:33:03.007Z,76.59
2023-01-30T21:35:34.111Z,76.85
2023-01-30T21:38:22.006Z,76.94
2023-01-30T21:41:11.059Z,77.28
2023-01-30T21:43:41.470Z,77.78
2023-01-30T21:46:14.376Z,78.06
2023-01-30T21:48:43.413Z,78.31
2023-01-30T21:51:15.283Z,78.43
2023-01-30T21:53:45.662Z,78.60
2023-01-30T21:56:16.065Z,78.71
2023-01-30T21:58:46.493Z,78.88
2023-01-30T22:01:17.671Z,79.17
2023-01-30T22:03:48.345Z,79.35
2023-01-30T22:06:18.948Z,79.30
2023-01-30T22:08:49.315Z,79.11
2023-01-30T22:11:20.166Z,79.20
2023-01-30T22:13:51.206Z,79.22
2023-01-30T22:16:24.233Z,79.26
2023-01-30T22:18:54.493Z,79.52
2023-01-30T22:21:26.386Z,79.78
2023-01-30T22:23:56.863Z,80.07
2023-01-30T22:26:27.955Z,80.07
2023-01-30T22:28:59.049Z,80.08
2023-01-30T22:31:31.274Z,80.42
2023-01-30T22:34:01.948Z,80.69
2023-01-30T22:36:34.012Z,80.76
2023-01-30T22:39:04.905Z,80.70
2023-01-30T22:41:36.425Z,80.88
2023-01-30T22:44:09.187Z,80.85
2023-01-30T22:46:41.710Z,81.06
2023-01-30T22:49:12.069Z,81.46
2023-01-30T22:51:43.668Z,81.69
2023-01-30T22:54:16.412Z,81.87
2023-01-30T22:56:48.780Z,82.04
2023-01-30T22:59:19.338Z,82.07
2023-01-30T23:01:51.850Z,82.13
2023-01-30T23:04:23.834Z,82.17
2023-01-30T23:06:54.264Z,82.20
2023-01-30T23:09:25.234Z,82.44
2023-01-30T23:12:14.846Z,82.46
2023-01-30T23:14:46.091Z,82.61
2023-01-30T23:17:39.256Z,82.85
2023-01-30T23:20:11.710Z,82.81
2023-01-30T23:22:42.306Z,83.15
2023-01-30T23:25:12.679Z,83.14
2023-01-30T23:27:43.024Z,83.31
2023-01-30T23:30:14.895Z,83.35
2023-01-30T23:32:45.223Z,83.47
2023-01-30T23:35:15.558Z,83.48
2023-01-30T23:38:03.297Z,83.49
2023-01-30T23:40:33.646Z,83.69
2023-01-30T23:43:04.512Z,83.70
2023-01-30T23:45:37.807Z,83.67
2023-01-30T23:48:09.373Z,83.74
2023-01-30T23:50:42.056Z,83.64
2023-01-30T23:53:13.096Z,83.65
2023-01-30T23:55:52.731Z,83.76
2023-01-30T23:58:23.247Z,83.71
